Bookmark and Share
Track history (hours):
 

F/V Attalaya Berria

Last reported at 2014-Apr-23 05:33 UTC. Time now 2014-Apr-23 09:27 UTC.
Position N 43°22' W 001°47'.

Length 26 m.

Type: Fishing. MMSI: 228315000.

NotesDate/timePositionNaut miles runAvg speedWind from/ knotsBaromVisibWave heightAir tempDewpointWater temp
2014-Apr-23 05:33N 43°22' W 001°47'2 0.6
2014-Apr-23 02:17N 43°24' W 001°48'4 5.2
2014-Apr-23 01:33N 43°26' W 001°43'5 5.0
2014-Apr-23 00:33N 43°29' W 001°38'4 3.6
2014-Apr-22 23:33N 43°32' W 001°36'2 1.7
2014-Apr-22 22:33N 43°31' W 001°34'1 1.2
2014-Apr-22 21:33N 43°30' W 001°35'1 1.3
2014-Apr-22 20:33N 43°31' W 001°34'1 1.2
2014-Apr-22 19:33N 43°30' W 001°35'3 3.3
2014-Apr-22 18:33N 43°28' W 001°39'6 0.5
2014-Apr-22 06:28N 43°24' W 001°45'4 3.9
2014-Apr-22 05:28N 43°23' W 001°40'3 3.2
2014-Apr-22 04:33N 43°26' W 001°39'5 5.2
2014-Apr-22 03:33N 43°31' W 001°35'2 1.5
2014-Apr-22 02:33N 43°29' W 001°36'1 0.9
2014-Apr-22 01:33N 43°30' W 001°37'0 0.4
2014-Apr-22 00:33N 43°30' W 001°36'2 1.6
2014-Apr-21 23:31N 43°31' W 001°35'2 1.7
2014-Apr-21 22:33N 43°30' W 001°36'2 1.6
2014-Apr-21 21:33N 43°31' W 001°35'0 0.4
2014-Apr-21 20:32N 43°31' W 001°34'0 0.5
2014-Apr-21 19:33N 43°30' W 001°34'  
2014-Apr-18 03:30N 43°24' W 001°46'5 4.1
2014-Apr-18 02:24N 43°23' W 001°40'3 3.3
2014-Apr-18 01:33N 43°24' W 001°44'8 7.5
2014-Apr-18 00:33N 43°29' W 001°36'1 1.4
2014-Apr-17 23:33N 43°30' W 001°36'2 1.7
2014-Apr-17 22:33N 43°31' W 001°34'1 0.6
2014-Apr-17 21:33N 43°30' W 001°35'1 0.6
2014-Apr-17 20:33N 43°31' W 001°35'6 2.0
2014-Apr-17 17:21N 43°27' W 001°42'6 0.5
2014-Apr-17 06:15N 43°22' W 001°47'3 3.8
2014-Apr-17 05:27N 43°24' W 001°44'3 2.7
2014-Apr-17 04:20N 43°23' W 001°40'3 3.6
2014-Apr-17 03:33N 43°26' W 001°39'6 5.9
2014-Apr-17 02:31N 43°31' W 001°35'2 1.7
2014-Apr-17 01:33N 43°30' W 001°36'4 4.0
2014-Apr-17 00:33N 43°27' W 001°41'1 0.6
2014-Apr-16 23:31N 43°28' W 001°41'1 0.6
2014-Apr-16 22:32N 43°28' W 001°42'6 6.1
2014-Apr-16 21:33N 43°31' W 001°35'1 0.6
2014-Apr-16 20:22N 43°31' W 001°34'5 6.2
2014-Apr-16 19:33N 43°28' W 001°40'8 6.7
2014-Apr-16 18:23N 43°22' W 001°47'0 0.0
2014-Apr-16 17:27N 43°22' W 001°47'0 0.0
2014-Apr-16 15:31N 43°22' W 001°47'0 0.0
2014-Apr-16 12:06N 43°22' W 001°47'0 0.0
2014-Apr-16 11:32N 43°22' W 001°47'0 0.0
2014-Apr-16 10:33N 43°22' W 001°47'0 0.0
2014-Apr-16 07:33N 43°22' W 001°47'4 4.5
2014-Apr-16 06:33N 43°26' W 001°43'8 8.1
2014-Apr-16 05:33N 43°31' W 001°35'0 0.1
2014-Apr-16 04:32N 43°31' W 001°35'0 0.0
2014-Apr-16 03:33N 43°31' W 001°35'1 0.4
2014-Apr-16 02:25N 43°31' W 001°34'1 0.7
2014-Apr-16 01:29N 43°30' W 001°34'7 6.8
2014-Apr-16 00:32N 43°28' W 001°42'4 4.3
2014-Apr-15 23:31N 43°32' W 001°43'3 2.6
2014-Apr-15 22:33N 43°34' W 001°41'5 5.1
2014-Apr-15 21:33N 43°30' W 001°45'3 2.8
2014-Apr-15 20:33N 43°27' W 001°43'1 1.3
2014-Apr-15 19:33N 43°26' W 001°42'6 5.5
2014-Apr-15 18:33N 43°22' W 001°47'2 0.1
2014-Apr-14 23:31N 43°24' W 001°46'4 4.7
2014-Apr-14 22:34N 43°26' W 001°41'6 5.7
2014-Apr-14 21:34N 43°30' W 001°36'2 1.7
2014-Apr-14 20:33N 43°31' W 001°34'4 3.5
2014-Apr-14 19:34N 43°29' W 001°38'4 4.4
2014-Apr-14 18:34N 43°27' W 001°43'  

Dump ship's entire track history

sailing weather and tide predictions

F/V Attalaya Berria — FHCB — position and weather